Terre Haute International Hulman Field
KHUF : now visible

Airfield :











YOU CAN JOIN US ON...

 
LOGIN :

Register | Disclaimer

   EN    FR    IT 

 









Legend :    VFR   Marginal VFR   IFR   Intensive IFR   Very Intensive IFR
Visi :
Ceiling :
>= 8 km
>= 3000ft
5 to 8 km
1000 to 3000 ft
1500m to 5 km
500 to 1000 ft
800 to 1500m
200 to 500 ft
< 800m
< 200 ft
Symbols :   Thunderstorms  Fog  Heavy snow  Heavy precipitations  Wind > 20 kt






- Airport Elevation : 589 ft
- IATA code : HUF


KHUF - Terre Haute International Hulman Field

CURRENT METAR :
  • 091836Z 23009KT 2SM BR OVC005 12/11 A2956 RMK AO2 T01170106

EXPIRED METARs :
  • 091820Z 23008KT 1 3/4SM R05/6000VP6000FT BR OVC005 12/11 A2957 RMK AO2 T01170106
  • 091753Z 23007KT 2 1/2SM BR OVC005 12/11 A2957 RMK AO2 RAE45 SLP014 P0001 60026 T01170106 10117 20111 58016
  • 091653Z 26007KT 4SM -RA BR OVC005 12/11 A2960 RMK AO2 SLP022 P0013 T01170106
  • 091638Z 24006KT 4SM -RA BR BKN006 OVC013 12/11 A2960 RMK AO2 P0011 T01170106
  • 091610Z 18010KT 2 1/2SM R05/5000VP6000FT RA BR OVC008 12/11 A2959 RMK AO2 PRESFR P0005 T01170106
  • 091553Z 22006KT 4SM -RA BR OVC008 11/11 A2961 RMK AO2 CIG 005V012 SLP028 P0004 T01110106

TAF KHUF
Valid from the 09 at 18:00 until the 10 at 18:00 UTC


091721Z 0918/1018 21009KT 5SM -SHRA BR OVC005
FM092200 24010KT 6SM -SHRA BR OVC006
FM092300 25012G18KT P6SM VCSH OVC010
FM100400 30016G24KT P6SM BKN040
FM101000 29009KT P6SM SCT200



MET'MAP, your aeronautical weather chart ! - Copyright ORBIFLY December 2007 - Disclaimer

ORBIFLY MET'MAP TEAM :

Programming & Development : Alexandra Zaïnal
Concept & original design : Baudouin d'Aumeries
Assistance for programming : Marc-Olivier Méhu
Technical & hardware support : Manuel Goepfert

Contact : metmap@orbifly.com




SOURCES & CREDITS :

   NOAA       Earth
Advisory